RJAW/IWO METAR and TAF weather

Enter ICAO airport designator
Station Type Date Time Source
RJAW METAR 2022/06/25 22:00 UTC NOAA

RJAW 252200Z 11010KT 9999 SCT015 BKN/// 28/23 Q1017 RMK 3CU015 A3005


Station Type Date Time Source
RJAW Decoded METAR 2022/06/25 22:00 UTC NOAA

Iwojima, Japan (RJAW) 24-47N 141-19E 116M
Jun 25, 2022 - 06:00 PM EDT / 2022.06.25 2200 UTC
Wind: from the ESE (110 degrees) at 12 MPH (10 KT):0
Visibility: greater than 7 mile(s):0
Sky conditions: mostly cloudy
Temperature: 82 F (28 C)
Dew Point: 73 F (23 C)
Relative Humidity: 74%
Pressure (altimeter): 30.03 in. Hg (1017 hPa)
ob: RJAW 252200Z 11010KT 9999 SCT015 BKN/// 28/23 Q1017 RMK 3CU015 A3005
cycle: 22

Station Type Date Time Source
RJAW TAF UTC NOAA

Error!

Example: see airport list